Station: ELLX - 26/04/2017 11:20Z (il y a 22 minutes)
ELLX 261120Z VRB06KT CAVOK 09/M09 Q1011 NOSIG
Vent de direction variable: 6 kt
Visibilité > 10 km et plafond haut ou pas de nuages significatifs
Température: +09ºC - Point de rosée: -09ºC - QNH: 1011 hPa
Pas de changement significatif prévu dans les 2 heures qui suivent l'observation